sensor_id;sensor_type;location;lat;lon;timestamp;P1;durP1;ratioP1;P2;durP2;ratioP2
63093;SDS011;49183;51.380;0.098;2024-03-25T00:00:42;12.32;;;7.13;;
63093;SDS011;49183;51.380;0.098;2024-03-25T00:03:09;11.88;;;6.78;;
63093;SDS011;49183;51.380;0.098;2024-03-25T00:05:35;13.80;;;6.82;;
63093;SDS011;49183;51.380;0.098;2024-03-25T00:08:03;15.88;;;6.90;;
63093;SDS011;49183;51.380;0.098;2024-03-25T00:10:31;14.70;;;6.35;;
63093;SDS011;49183;51.380;0.098;2024-03-25T00:12:57;13.45;;;5.70;;
63093;SDS011;49183;51.380;0.098;2024-03-25T00:15:24;11.65;;;5.63;;
63093;SDS011;49183;51.380;0.098;2024-03-25T00:17:51;13.40;;;7.10;;
63093;SDS011;49183;51.380;0.098;2024-03-25T00:20:17;16.08;;;5.97;;
63093;SDS011;49183;51.380;0.098;2024-03-25T00:22:44;15.40;;;6.88;;
63093;SDS011;49183;51.380;0.098;2024-03-25T00:25:11;11.93;;;6.35;;
63093;SDS011;49183;51.380;0.098;2024-03-25T00:27:38;15.18;;;6.68;;
63093;SDS011;49183;51.380;0.098;2024-03-25T00:30:05;12.32;;;5.85;;
63093;SDS011;49183;51.380;0.098;2024-03-25T00:32:32;9.75;;;6.25;;
63093;SDS011;49183;51.380;0.098;2024-03-25T00:34:59;13.00;;;6.55;;
63093;SDS011;49183;51.380;0.098;2024-03-25T00:37:25;11.65;;;6.00;;
63093;SDS011;49183;51.380;0.098;2024-03-25T00:39:53;11.38;;;6.47;;
63093;SDS011;49183;51.380;0.098;2024-03-25T00:42:19;12.82;;;6.43;;
63093;SDS011;49183;51.380;0.098;2024-03-25T00:44:46;12.25;;;6.03;;
63093;SDS011;49183;51.380;0.098;2024-03-25T00:47:13;18.83;;;8.00;;
63093;SDS011;49183;51.380;0.098;2024-03-25T00:49:39;13.50;;;5.97;;
63093;SDS011;49183;51.380;0.098;2024-03-25T00:52:06;14.82;;;6.25;;
63093;SDS011;49183;51.380;0.098;2024-03-25T00:54:33;8.82;;;5.82;;
63093;SDS011;49183;51.380;0.098;2024-03-25T00:56:59;11.32;;;5.38;;
63093;SDS011;49183;51.380;0.098;2024-03-25T00:59:27;13.35;;;5.72;;
63093;SDS011;49183;51.380;0.098;2024-03-25T01:01:53;14.65;;;6.28;;
63093;SDS011;49183;51.380;0.098;2024-03-25T01:04:20;14.70;;;5.78;;
63093;SDS011;49183;51.380;0.098;2024-03-25T01:06:46;10.70;;;5.53;;
63093;SDS011;49183;51.380;0.098;2024-03-25T01:09:14;10.90;;;5.28;;
63093;SDS011;49183;51.380;0.098;2024-03-25T01:11:42;9.38;;;6.03;;
63093;SDS011;49183;51.380;0.098;2024-03-25T01:14:08;8.50;;;5.68;;
63093;SDS011;49183;51.380;0.098;2024-03-25T01:16:35;14.18;;;6.30;;
63093;SDS011;49183;51.380;0.098;2024-03-25T01:19:01;12.35;;;5.78;;
63093;SDS011;49183;51.380;0.098;2024-03-25T01:21:28;10.98;;;5.53;;
63093;SDS011;49183;51.380;0.098;2024-03-25T01:23:56;13.98;;;5.35;;
63093;SDS011;49183;51.380;0.098;2024-03-25T01:26:22;11.10;;;5.88;;
63093;SDS011;49183;51.380;0.098;2024-03-25T01:28:49;7.80;;;4.45;;
63093;SDS011;49183;51.380;0.098;2024-03-25T01:31:16;11.95;;;5.53;;
63093;SDS011;49183;51.380;0.098;2024-03-25T01:33:42;11.13;;;5.38;;
63093;SDS011;49183;51.380;0.098;2024-03-25T01:36:09;9.32;;;5.25;;
63093;SDS011;49183;51.380;0.098;2024-03-25T01:38:37;11.35;;;4.78;;
63093;SDS011;49183;51.380;0.098;2024-03-25T01:41:10;12.00;;;5.03;;
63093;SDS011;49183;51.380;0.098;2024-03-25T01:43:38;12.65;;;5.68;;
63093;SDS011;49183;51.380;0.098;2024-03-25T01:46:05;13.93;;;5.95;;
63093;SDS011;49183;51.380;0.098;2024-03-25T01:48:32;9.90;;;5.07;;
63093;SDS011;49183;51.380;0.098;2024-03-25T01:50:59;11.77;;;6.35;;
63093;SDS011;49183;51.380;0.098;2024-03-25T01:53:27;9.60;;;5.57;;
63093;SDS011;49183;51.380;0.098;2024-03-25T01:55:55;17.65;;;5.22;;
63093;SDS011;49183;51.380;0.098;2024-03-25T01:58:23;9.80;;;4.88;;
63093;SDS011;49183;51.380;0.098;2024-03-25T02:00:52;8.38;;;5.22;;
63093;SDS011;49183;51.380;0.098;2024-03-25T02:03:21;9.95;;;5.43;;
63093;SDS011;49183;51.380;0.098;2024-03-25T02:05:50;14.20;;;6.60;;
63093;SDS011;49183;51.380;0.098;2024-03-25T02:08:21;12.43;;;5.75;;
63093;SDS011;49183;51.380;0.098;2024-03-25T02:10:48;11.40;;;7.00;;
63093;SDS011;49183;51.380;0.098;2024-03-25T02:13:15;10.20;;;5.57;;
63093;SDS011;49183;51.380;0.098;2024-03-25T02:15:42;16.05;;;5.85;;
63093;SDS011;49183;51.380;0.098;2024-03-25T02:18:09;13.80;;;5.65;;
63093;SDS011;49183;51.380;0.098;2024-03-25T02:20:36;11.25;;;5.57;;
63093;SDS011;49183;51.380;0.098;2024-03-25T02:23:02;14.40;;;5.57;;
63093;SDS011;49183;51.380;0.098;2024-03-25T02:25:30;14.55;;;5.13;;
63093;SDS011;49183;51.380;0.098;2024-03-25T02:27:58;14.10;;;5.28;;
63093;SDS011;49183;51.380;0.098;2024-03-25T02:30:25;13.77;;;5.07;;
63093;SDS011;49183;51.380;0.098;2024-03-25T02:32:52;16.30;;;6.57;;
63093;SDS011;49183;51.380;0.098;2024-03-25T02:35:18;11.48;;;6.15;;
63093;SDS011;49183;51.380;0.098;2024-03-25T02:37:47;11.43;;;6.35;;
63093;SDS011;49183;51.380;0.098;2024-03-25T02:40:13;13.63;;;5.97;;
63093;SDS011;49183;51.380;0.098;2024-03-25T02:42:40;13.48;;;6.80;;
63093;SDS011;49183;51.380;0.098;2024-03-25T02:45:07;9.70;;;6.40;;
63093;SDS011;49183;51.380;0.098;2024-03-25T02:47:34;8.73;;;6.03;;
63093;SDS011;49183;51.380;0.098;2024-03-25T02:50:02;12.52;;;6.43;;
63093;SDS011;49183;51.380;0.098;2024-03-25T02:52:28;15.45;;;6.60;;
63093;SDS011;49183;51.380;0.098;2024-03-25T02:54:55;12.32;;;7.03;;
63093;SDS011;49183;51.380;0.098;2024-03-25T02:57:22;9.25;;;6.05;;
63093;SDS011;49183;51.380;0.098;2024-03-25T02:59:48;9.40;;;6.32;;
63093;SDS011;49183;51.380;0.098;2024-03-25T03:02:15;10.88;;;6.38;;
63093;SDS011;49183;51.380;0.098;2024-03-25T03:04:42;11.02;;;7.00;;
63093;SDS011;49183;51.380;0.098;2024-03-25T03:07:08;11.25;;;6.43;;
63093;SDS011;49183;51.380;0.098;2024-03-25T03:09:35;13.25;;;6.95;;
63093;SDS011;49183;51.380;0.098;2024-03-25T03:12:02;12.63;;;7.18;;
63093;SDS011;49183;51.380;0.098;2024-03-25T03:14:29;11.52;;;6.55;;
63093;SDS011;49183;51.380;0.098;2024-03-25T03:16:55;12.25;;;6.50;;
63093;SDS011;49183;51.380;0.098;2024-03-25T03:19:27;9.37;;;5.07;;
63093;SDS011;49183;51.380;0.098;2024-03-25T03:21:55;12.10;;;6.57;;
63093;SDS011;49183;51.380;0.098;2024-03-25T03:24:22;14.35;;;6.07;;
63093;SDS011;49183;51.380;0.098;2024-03-25T03:26:49;10.60;;;7.05;;
63093;SDS011;49183;51.380;0.098;2024-03-25T03:29:16;11.07;;;6.70;;
63093;SDS011;49183;51.380;0.098;2024-03-25T03:31:42;10.98;;;6.78;;
63093;SDS011;49183;51.380;0.098;2024-03-25T03:34:09;12.60;;;7.10;;
63093;SDS011;49183;51.380;0.098;2024-03-25T03:36:36;12.02;;;6.10;;
63093;SDS011;49183;51.380;0.098;2024-03-25T03:39:02;10.60;;;5.95;;
63093;SDS011;49183;51.380;0.098;2024-03-25T03:41:29;12.70;;;7.03;;
63093;SDS011;49183;51.380;0.098;2024-03-25T03:43:56;15.07;;;5.60;;
63093;SDS011;49183;51.380;0.098;2024-03-25T03:46:22;10.27;;;8.07;;
63093;SDS011;49183;51.380;0.098;2024-03-25T03:48:50;9.43;;;6.70;;
63093;SDS011;49183;51.380;0.098;2024-03-25T03:51:17;12.95;;;6.45;;
63093;SDS011;49183;51.380;0.098;2024-03-25T03:53:43;10.13;;;6.10;;
63093;SDS011;49183;51.380;0.098;2024-03-25T03:56:10;11.38;;;6.00;;
63093;SDS011;49183;51.380;0.098;2024-03-25T03:58:36;13.45;;;5.88;;
63093;SDS011;49183;51.380;0.098;2024-03-25T04:01:03;9.38;;;5.47;;
63093;SDS011;49183;51.380;0.098;2024-03-25T04:03:30;11.63;;;5.70;;
63093;SDS011;49183;51.380;0.098;2024-03-25T04:05:57;9.70;;;6.57;;
63093;SDS011;49183;51.380;0.098;2024-03-25T04:08:24;15.95;;;5.88;;
63093;SDS011;49183;51.380;0.098;2024-03-25T04:10:50;12.15;;;4.68;;
63093;SDS011;49183;51.380;0.098;2024-03-25T04:13:17;9.05;;;5.20;;
63093;SDS011;49183;51.380;0.098;2024-03-25T04:15:43;10.13;;;5.43;;
63093;SDS011;49183;51.380;0.098;2024-03-25T04:18:10;11.20;;;4.47;;
63093;SDS011;49183;51.380;0.098;2024-03-25T04:20:38;16.17;;;6.40;;
63093;SDS011;49183;51.380;0.098;2024-03-25T04:23:06;7.45;;;4.20;;
63093;SDS011;49183;51.380;0.098;2024-03-25T04:25:36;9.98;;;5.07;;
63093;SDS011;49183;51.380;0.098;2024-03-25T04:28:06;10.88;;;4.47;;
63093;SDS011;49183;51.380;0.098;2024-03-25T04:30:33;11.88;;;5.13;;
63093;SDS011;49183;51.380;0.098;2024-03-25T04:33:00;15.52;;;5.63;;
63093;SDS011;49183;51.380;0.098;2024-03-25T04:35:27;16.27;;;5.20;;
63093;SDS011;49183;51.380;0.098;2024-03-25T04:37:54;12.88;;;7.03;;
63093;SDS011;49183;51.380;0.098;2024-03-25T04:40:21;13.82;;;6.00;;
63093;SDS011;49183;51.380;0.098;2024-03-25T04:42:48;12.02;;;5.55;;
63093;SDS011;49183;51.380;0.098;2024-03-25T04:45:15;14.57;;;6.68;;
63093;SDS011;49183;51.380;0.098;2024-03-25T04:47:41;14.07;;;7.93;;
63093;SDS011;49183;51.380;0.098;2024-03-25T04:50:09;13.68;;;6.43;;
63093;SDS011;49183;51.380;0.098;2024-03-25T04:52:36;20.10;;;7.80;;
63093;SDS011;49183;51.380;0.098;2024-03-25T04:55:02;11.68;;;7.28;;
63093;SDS011;49183;51.380;0.098;2024-03-25T04:57:30;15.63;;;6.63;;
63093;SDS011;49183;51.380;0.098;2024-03-25T04:59:57;14.32;;;7.03;;
63093;SDS011;49183;51.380;0.098;2024-03-25T05:02:24;15.02;;;7.30;;
63093;SDS011;49183;51.380;0.098;2024-03-25T05:04:51;20.17;;;7.57;;
63093;SDS011;49183;51.380;0.098;2024-03-25T05:07:19;13.73;;;7.35;;
63093;SDS011;49183;51.380;0.098;2024-03-25T05:09:45;18.17;;;7.47;;
63093;SDS011;49183;51.380;0.098;2024-03-25T05:12:12;17.10;;;7.97;;
63093;SDS011;49183;51.380;0.098;2024-03-25T05:14:39;23.95;;;8.43;;
63093;SDS011;49183;51.380;0.098;2024-03-25T05:17:06;20.88;;;8.77;;
63093;SDS011;49183;51.380;0.098;2024-03-25T05:19:35;14.20;;;8.52;;
63093;SDS011;49183;51.380;0.098;2024-03-25T05:22:02;18.70;;;9.82;;
63093;SDS011;49183;51.380;0.098;2024-03-25T05:24:29;19.17;;;9.82;;
63093;SDS011;49183;51.380;0.098;2024-03-25T05:26:55;18.75;;;11.77;;
63093;SDS011;49183;51.380;0.098;2024-03-25T05:29:22;15.82;;;8.98;;
63093;SDS011;49183;51.380;0.098;2024-03-25T05:31:58;15.98;;;7.82;;
63093;SDS011;49183;51.380;0.098;2024-03-25T05:34:26;14.90;;;9.48;;
63093;SDS011;49183;51.380;0.098;2024-03-25T05:36:54;16.60;;;8.50;;
63093;SDS011;49183;51.380;0.098;2024-03-25T05:39:21;13.98;;;9.18;;
63093;SDS011;49183;51.380;0.098;2024-03-25T05:41:48;16.15;;;8.50;;
63093;SDS011;49183;51.380;0.098;2024-03-25T05:44:15;12.27;;;8.60;;
63093;SDS011;49183;51.380;0.098;2024-03-25T05:46:41;16.48;;;7.88;;
63093;SDS011;49183;51.380;0.098;2024-03-25T05:49:08;16.42;;;8.55;;
63093;SDS011;49183;51.380;0.098;2024-03-25T05:51:36;16.85;;;8.02;;
63093;SDS011;49183;51.380;0.098;2024-03-25T05:54:02;17.55;;;9.50;;
63093;SDS011;49183;51.380;0.098;2024-03-25T05:56:29;15.77;;;8.25;;
63093;SDS011;49183;51.380;0.098;2024-03-25T06:01:25;13.57;;;7.10;;
63093;SDS011;49183;51.380;0.098;2024-03-25T06:03:53;16.63;;;8.15;;
63093;SDS011;49183;51.380;0.098;2024-03-25T06:06:20;20.63;;;8.48;;
63093;SDS011;49183;51.380;0.098;2024-03-25T06:08:47;11.77;;;7.28;;
63093;SDS011;49183;51.380;0.098;2024-03-25T06:11:15;15.93;;;9.13;;
63093;SDS011;49183;51.380;0.098;2024-03-25T06:13:41;14.13;;;9.40;;
63093;SDS011;49183;51.380;0.098;2024-03-25T06:16:08;14.18;;;8.75;;
63093;SDS011;49183;51.380;0.098;2024-03-25T06:18:35;16.02;;;9.20;;
63093;SDS011;49183;51.380;0.098;2024-03-25T06:21:02;17.40;;;9.55;;
63093;SDS011;49183;51.380;0.098;2024-03-25T06:23:29;17.38;;;9.18;;
63093;SDS011;49183;51.380;0.098;2024-03-25T06:25:56;20.95;;;9.50;;
63093;SDS011;49183;51.380;0.098;2024-03-25T06:28:22;15.45;;;9.93;;
63093;SDS011;49183;51.380;0.098;2024-03-25T06:30:49;18.60;;;8.38;;
63093;SDS011;49183;51.380;0.098;2024-03-25T06:33:36;16.77;;;7.90;;
63093;SDS011;49183;51.380;0.098;2024-03-25T06:36:21;14.50;;;9.10;;
63093;SDS011;49183;51.380;0.098;2024-03-25T06:38:48;11.27;;;6.95;;
63093;SDS011;49183;51.380;0.098;2024-03-25T06:41:15;14.02;;;7.55;;
63093;SDS011;49183;51.380;0.098;2024-03-25T06:43:41;14.50;;;8.70;;
63093;SDS011;49183;51.380;0.098;2024-03-25T06:46:08;12.73;;;8.10;;
63093;SDS011;49183;51.380;0.098;2024-03-25T06:48:35;16.08;;;7.53;;
63093;SDS011;49183;51.380;0.098;2024-03-25T06:51:04;16.50;;;8.63;;
63093;SDS011;49183;51.380;0.098;2024-03-25T06:53:31;16.50;;;8.45;;
63093;SDS011;49183;51.380;0.098;2024-03-25T06:56:00;13.45;;;6.25;;
63093;SDS011;49183;51.380;0.098;2024-03-25T06:58:28;17.90;;;9.10;;
63093;SDS011;49183;51.380;0.098;2024-03-25T07:00:55;15.38;;;7.40;;
63093;SDS011;49183;51.380;0.098;2024-03-25T07:03:23;18.75;;;7.18;;
63093;SDS011;49183;51.380;0.098;2024-03-25T07:05:51;9.27;;;6.22;;
63093;SDS011;49183;51.380;0.098;2024-03-25T07:08:19;14.98;;;6.55;;
63093;SDS011;49183;51.380;0.098;2024-03-25T07:10:45;11.27;;;6.40;;
63093;SDS011;49183;51.380;0.098;2024-03-25T07:13:12;17.50;;;6.28;;
63093;SDS011;49183;51.380;0.098;2024-03-25T07:15:39;12.52;;;5.50;;
63093;SDS011;49183;51.380;0.098;2024-03-25T07:18:06;10.55;;;5.63;;
63093;SDS011;49183;51.380;0.098;2024-03-25T07:20:32;14.75;;;5.35;;
63093;SDS011;49183;51.380;0.098;2024-03-25T07:22:59;13.25;;;4.97;;
63093;SDS011;49183;51.380;0.098;2024-03-25T07:25:26;16.48;;;5.15;;
63093;SDS011;49183;51.380;0.098;2024-03-25T07:27:53;10.23;;;5.55;;
63093;SDS011;49183;51.380;0.098;2024-03-25T07:30:20;13.57;;;5.47;;
63093;SDS011;49183;51.380;0.098;2024-03-25T07:32:48;11.77;;;6.13;;
63093;SDS011;49183;51.380;0.098;2024-03-25T07:35:15;14.82;;;4.68;;
63093;SDS011;49183;51.380;0.098;2024-03-25T07:37:43;14.52;;;4.35;;
63093;SDS011;49183;51.380;0.098;2024-03-25T07:40:10;12.32;;;5.75;;
63093;SDS011;49183;51.380;0.098;2024-03-25T07:42:40;12.57;;;5.63;;
63093;SDS011;49183;51.380;0.098;2024-03-25T07:45:07;14.48;;;5.25;;
63093;SDS011;49183;51.380;0.098;2024-03-25T07:47:33;9.27;;;4.35;;
63093;SDS011;49183;51.380;0.098;2024-03-25T07:50:00;14.82;;;5.00;;
63093;SDS011;49183;51.380;0.098;2024-03-25T07:52:27;13.68;;;4.75;;
63093;SDS011;49183;51.380;0.098;2024-03-25T07:54:54;12.82;;;5.45;;
63093;SDS011;49183;51.380;0.098;2024-03-25T07:57:22;10.02;;;4.50;;
63093;SDS011;49183;51.380;0.098;2024-03-25T07:59:48;11.35;;;4.80;;
63093;SDS011;49183;51.380;0.098;2024-03-25T08:02:15;15.30;;;4.72;;
63093;SDS011;49183;51.380;0.098;2024-03-25T08:04:42;7.80;;;4.90;;
63093;SDS011;49183;51.380;0.098;2024-03-25T08:07:08;11.40;;;5.50;;
63093;SDS011;49183;51.380;0.098;2024-03-25T08:09:35;13.57;;;5.78;;
63093;SDS011;49183;51.380;0.098;2024-03-25T08:12:03;12.15;;;5.35;;
63093;SDS011;49183;51.380;0.098;2024-03-25T08:14:30;11.07;;;5.10;;
63093;SDS011;49183;51.380;0.098;2024-03-25T08:16:56;12.20;;;4.95;;
63093;SDS011;49183;51.380;0.098;2024-03-25T08:19:23;9.10;;;5.20;;
63093;SDS011;49183;51.380;0.098;2024-03-25T08:21:50;12.93;;;5.35;;
63093;SDS011;49183;51.380;0.098;2024-03-25T08:24:18;14.23;;;5.57;;
63093;SDS011;49183;51.380;0.098;2024-03-25T08:26:45;16.35;;;5.47;;
63093;SDS011;49183;51.380;0.098;2024-03-25T08:29:12;10.18;;;4.97;;
63093;SDS011;49183;51.380;0.098;2024-03-25T08:31:39;9.23;;;5.10;;
63093;SDS011;49183;51.380;0.098;2024-03-25T08:34:05;10.90;;;5.75;;
63093;SDS011;49183;51.380;0.098;2024-03-25T08:36:33;11.27;;;5.25;;
63093;SDS011;49183;51.380;0.098;2024-03-25T08:38:59;12.63;;;7.70;;
63093;SDS011;49183;51.380;0.098;2024-03-25T08:41:26;17.10;;;5.85;;
63093;SDS011;49183;51.380;0.098;2024-03-25T08:43:53;11.10;;;6.78;;
63093;SDS011;49183;51.380;0.098;2024-03-25T08:46:20;13.68;;;5.80;;
63093;SDS011;49183;51.380;0.098;2024-03-25T08:48:46;10.35;;;5.60;;
63093;SDS011;49183;51.380;0.098;2024-03-25T08:51:13;16.27;;;7.85;;
63093;SDS011;49183;51.380;0.098;2024-03-25T08:53:39;14.07;;;6.28;;
63093;SDS011;49183;51.380;0.098;2024-03-25T08:56:06;11.65;;;6.18;;
63093;SDS011;49183;51.380;0.098;2024-03-25T08:58:33;14.60;;;6.78;;
63093;SDS011;49183;51.380;0.098;2024-03-25T09:00:59;8.93;;;5.35;;
63093;SDS011;49183;51.380;0.098;2024-03-25T09:03:26;10.18;;;5.38;;
63093;SDS011;49183;51.380;0.098;2024-03-25T09:05:53;15.05;;;5.80;;
63093;SDS011;49183;51.380;0.098;2024-03-25T09:08:20;7.85;;;6.07;;
63093;SDS011;49183;51.380;0.098;2024-03-25T09:10:48;11.10;;;5.28;;
63093;SDS011;49183;51.380;0.098;2024-03-25T09:13:30;7.32;;;5.45;;
63093;SDS011;49183;51.380;0.098;2024-03-25T09:15:57;9.13;;;4.70;;
63093;SDS011;49183;51.380;0.098;2024-03-25T09:18:23;9.75;;;4.95;;
63093;SDS011;49183;51.380;0.098;2024-03-25T09:20:52;8.45;;;4.95;;
63093;SDS011;49183;51.380;0.098;2024-03-25T09:23:19;9.82;;;4.55;;
63093;SDS011;49183;51.380;0.098;2024-03-25T09:25:53;12.63;;;5.80;;
63093;SDS011;49183;51.380;0.098;2024-03-25T09:28:20;7.95;;;5.05;;
63093;SDS011;49183;51.380;0.098;2024-03-25T09:30:47;8.27;;;4.97;;
63093;SDS011;49183;51.380;0.098;2024-03-25T09:33:14;8.40;;;4.88;;
63093;SDS011;49183;51.380;0.098;2024-03-25T09:35:41;10.88;;;5.18;;
63093;SDS011;49183;51.380;0.098;2024-03-25T09:38:08;11.63;;;5.20;;
63093;SDS011;49183;51.380;0.098;2024-03-25T09:40:41;12.13;;;5.57;;
63093;SDS011;49183;51.380;0.098;2024-03-25T09:43:12;5.32;;;4.13;;
63093;SDS011;49183;51.380;0.098;2024-03-25T09:45:44;6.80;;;4.75;;
63093;SDS011;49183;51.380;0.098;2024-03-25T09:48:15;8.02;;;5.40;;
63093;SDS011;49183;51.380;0.098;2024-03-25T09:50:45;12.98;;;4.85;;
63093;SDS011;49183;51.380;0.098;2024-03-25T09:53:12;6.13;;;4.90;;
63093;SDS011;49183;51.380;0.098;2024-03-25T09:55:40;9.55;;;5.53;;
63093;SDS011;49183;51.380;0.098;2024-03-25T09:58:08;7.13;;;5.97;;
63093;SDS011;49183;51.380;0.098;2024-03-25T10:00:36;9.35;;;5.20;;
63093;SDS011;49183;51.380;0.098;2024-03-25T10:03:03;10.75;;;6.32;;
63093;SDS011;49183;51.380;0.098;2024-03-25T10:05:30;9.05;;;5.65;;
63093;SDS011;49183;51.380;0.098;2024-03-25T10:07:57;8.52;;;5.60;;
63093;SDS011;49183;51.380;0.098;2024-03-25T10:10:24;7.13;;;5.20;;
63093;SDS011;49183;51.380;0.098;2024-03-25T10:12:50;8.90;;;7.20;;
63093;SDS011;49183;51.380;0.098;2024-03-25T10:15:18;11.73;;;6.55;;
63093;SDS011;49183;51.380;0.098;2024-03-25T10:17:45;9.13;;;5.93;;
63093;SDS011;49183;51.380;0.098;2024-03-25T10:20:14;9.90;;;6.53;;
63093;SDS011;49183;51.380;0.098;2024-03-25T10:22:42;15.77;;;7.90;;
63093;SDS011;49183;51.380;0.098;2024-03-25T10:25:26;7.95;;;5.97;;
63093;SDS011;49183;51.380;0.098;2024-03-25T10:27:58;10.55;;;6.50;;
63093;SDS011;49183;51.380;0.098;2024-03-25T10:30:27;10.80;;;6.25;;
63093;SDS011;49183;51.380;0.098;2024-03-25T10:33:04;8.98;;;6.30;;
63093;SDS011;49183;51.380;0.098;2024-03-25T10:35:32;10.98;;;5.90;;
63093;SDS011;49183;51.380;0.098;2024-03-25T10:38:08;11.25;;;6.03;;
63093;SDS011;49183;51.380;0.098;2024-03-25T10:40:39;8.57;;;4.97;;
63093;SDS011;49183;51.380;0.098;2024-03-25T10:43:07;8.68;;;5.03;;
63093;SDS011;49183;51.380;0.098;2024-03-25T10:50:53;7.25;;;5.45;;
63093;SDS011;49183;51.380;0.098;2024-03-25T10:55:53;7.38;;;4.72;;
63093;SDS011;49183;51.380;0.098;2024-03-25T10:58:21;7.15;;;5.13;;
63093;SDS011;49183;51.380;0.098;2024-03-25T11:00:48;11.70;;;6.10;;
63093;SDS011;49183;51.380;0.098;2024-03-25T11:03:17;10.73;;;6.03;;
63093;SDS011;49183;51.380;0.098;2024-03-25T11:05:47;10.82;;;5.93;;
63093;SDS011;49183;51.380;0.098;2024-03-25T11:08:15;8.82;;;4.53;;
63093;SDS011;49183;51.380;0.098;2024-03-25T11:10:43;10.05;;;5.35;;
63093;SDS011;49183;51.380;0.098;2024-03-25T11:13:13;9.75;;;5.07;;
63093;SDS011;49183;51.380;0.098;2024-03-25T11:15:40;8.63;;;5.75;;
63093;SDS011;49183;51.380;0.098;2024-03-25T11:18:15;12.60;;;6.10;;
63093;SDS011;49183;51.380;0.098;2024-03-25T11:20:45;9.95;;;4.82;;
63093;SDS011;49183;51.380;0.098;2024-03-25T11:23:13;13.70;;;4.93;;
63093;SDS011;49183;51.380;0.098;2024-03-25T11:25:41;9.77;;;5.32;;
63093;SDS011;49183;51.380;0.098;2024-03-25T11:28:08;9.05;;;4.30;;
63093;SDS011;49183;51.380;0.098;2024-03-25T11:30:36;11.55;;;4.57;;
63093;SDS011;49183;51.380;0.098;2024-03-25T11:33:03;12.65;;;5.20;;
63093;SDS011;49183;51.380;0.098;2024-03-25T11:35:37;6.85;;;4.55;;
63093;SDS011;49183;51.380;0.098;2024-03-25T11:38:04;11.68;;;4.18;;
63093;SDS011;49183;51.380;0.098;2024-03-25T11:40:31;7.43;;;5.15;;
63093;SDS011;49183;51.380;0.098;2024-03-25T11:42:58;10.02;;;4.65;;
63093;SDS011;49183;51.380;0.098;2024-03-25T11:45:25;6.82;;;4.45;;
63093;SDS011;49183;51.380;0.098;2024-03-25T11:47:52;9.02;;;4.47;;
63093;SDS011;49183;51.380;0.098;2024-03-25T11:50:19;9.40;;;4.78;;
63093;SDS011;49183;51.380;0.098;2024-03-25T11:52:46;9.70;;;4.72;;
63093;SDS011;49183;51.380;0.098;2024-03-25T11:55:19;7.00;;;3.95;;
63093;SDS011;49183;51.380;0.098;2024-03-25T11:57:54;6.40;;;4.05;;
63093;SDS011;49183;51.380;0.098;2024-03-25T12:00:23;9.68;;;4.72;;
63093;SDS011;49183;51.380;0.098;2024-03-25T12:02:50;13.43;;;4.70;;
63093;SDS011;49183;51.380;0.098;2024-03-25T12:05:18;6.80;;;4.63;;
63093;SDS011;49183;51.380;0.098;2024-03-25T12:07:45;8.90;;;4.38;;
63093;SDS011;49183;51.380;0.098;2024-03-25T12:10:11;9.07;;;5.20;;
63093;SDS011;49183;51.380;0.098;2024-03-25T12:12:57;8.73;;;4.50;;
63093;SDS011;49183;51.380;0.098;2024-03-25T12:15:24;8.13;;;4.45;;
63093;SDS011;49183;51.380;0.098;2024-03-25T12:17:52;8.57;;;4.75;;
63093;SDS011;49183;51.380;0.098;2024-03-25T12:20:22;10.85;;;4.97;;
63093;SDS011;49183;51.380;0.098;2024-03-25T12:22:50;8.18;;;4.80;;
63093;SDS011;49183;51.380;0.098;2024-03-25T12:25:18;9.50;;;5.05;;
63093;SDS011;49183;51.380;0.098;2024-03-25T12:27:45;9.05;;;5.13;;
63093;SDS011;49183;51.380;0.098;2024-03-25T12:30:14;11.68;;;5.00;;
63093;SDS011;49183;51.380;0.098;2024-03-25T12:32:41;12.40;;;4.38;;
63093;SDS011;49183;51.380;0.098;2024-03-25T12:35:11;9.88;;;3.95;;
63093;SDS011;49183;51.380;0.098;2024-03-25T12:37:39;7.60;;;3.67;;
63093;SDS011;49183;51.380;0.098;2024-03-25T12:40:07;11.45;;;4.07;;
63093;SDS011;49183;51.380;0.098;2024-03-25T12:42:35;11.23;;;5.43;;
63093;SDS011;49183;51.380;0.098;2024-03-25T12:45:03;9.02;;;4.70;;
63093;SDS011;49183;51.380;0.098;2024-03-25T12:47:30;7.47;;;4.32;;
63093;SDS011;49183;51.380;0.098;2024-03-25T12:50:00;8.57;;;4.45;;
63093;SDS011;49183;51.380;0.098;2024-03-25T12:52:26;10.40;;;4.32;;
63093;SDS011;49183;51.380;0.098;2024-03-25T12:54:53;14.55;;;6.03;;
63093;SDS011;49183;51.380;0.098;2024-03-25T12:57:20;13.77;;;5.03;;
63093;SDS011;49183;51.380;0.098;2024-03-25T12:59:47;7.35;;;4.18;;
63093;SDS011;49183;51.380;0.098;2024-03-25T13:02:13;10.45;;;4.90;;
63093;SDS011;49183;51.380;0.098;2024-03-25T13:04:40;6.28;;;4.38;;
63093;SDS011;49183;51.380;0.098;2024-03-25T13:07:09;7.28;;;3.53;;
63093;SDS011;49183;51.380;0.098;2024-03-25T13:12:05;7.82;;;4.22;;
63093;SDS011;49183;51.380;0.098;2024-03-25T13:14:32;9.75;;;3.70;;
63093;SDS011;49183;51.380;0.098;2024-03-25T13:16:59;9.38;;;4.35;;
63093;SDS011;49183;51.380;0.098;2024-03-25T13:19:26;8.32;;;4.43;;
63093;SDS011;49183;51.380;0.098;2024-03-25T13:21:55;10.63;;;4.63;;
63093;SDS011;49183;51.380;0.098;2024-03-25T13:24:23;7.13;;;4.70;;
63093;SDS011;49183;51.380;0.098;2024-03-25T13:26:49;9.80;;;4.72;;
63093;SDS011;49183;51.380;0.098;2024-03-25T13:29:16;5.93;;;4.30;;
63093;SDS011;49183;51.380;0.098;2024-03-25T13:31:42;5.35;;;3.50;;
63093;SDS011;49183;51.380;0.098;2024-03-25T13:34:09;7.78;;;4.00;;
63093;SDS011;49183;51.380;0.098;2024-03-25T13:36:36;8.98;;;3.95;;
63093;SDS011;49183;51.380;0.098;2024-03-25T13:39:03;10.35;;;3.42;;
63093;SDS011;49183;51.380;0.098;2024-03-25T13:41:30;6.90;;;3.97;;
63093;SDS011;49183;51.380;0.098;2024-03-25T13:43:58;9.85;;;3.85;;
63093;SDS011;49183;51.380;0.098;2024-03-25T13:46:26;8.50;;;4.35;;
63093;SDS011;49183;51.380;0.098;2024-03-25T13:48:53;6.63;;;4.38;;
63093;SDS011;49183;51.380;0.098;2024-03-25T13:51:20;8.23;;;3.33;;
63093;SDS011;49183;51.380;0.098;2024-03-25T13:53:47;10.07;;;3.95;;
63093;SDS011;49183;51.380;0.098;2024-03-25T13:56:14;6.50;;;4.00;;
63093;SDS011;49183;51.380;0.098;2024-03-25T13:58:41;8.77;;;3.75;;
63093;SDS011;49183;51.380;0.098;2024-03-25T14:01:07;7.18;;;3.90;;
63093;SDS011;49183;51.380;0.098;2024-03-25T14:03:35;8.85;;;4.05;;
63093;SDS011;49183;51.380;0.098;2024-03-25T14:06:02;8.85;;;3.60;;
63093;SDS011;49183;51.380;0.098;2024-03-25T14:08:28;9.15;;;4.30;;
63093;SDS011;49183;51.380;0.098;2024-03-25T14:10:58;9.48;;;3.90;;
63093;SDS011;49183;51.380;0.098;2024-03-25T14:13:26;8.80;;;3.72;;
63093;SDS011;49183;51.380;0.098;2024-03-25T14:15:52;9.88;;;4.22;;
63093;SDS011;49183;51.380;0.098;2024-03-25T14:18:19;8.15;;;4.10;;
63093;SDS011;49183;51.380;0.098;2024-03-25T14:20:46;6.90;;;4.35;;
63093;SDS011;49183;51.380;0.098;2024-03-25T14:23:12;11.02;;;5.00;;
63093;SDS011;49183;51.380;0.098;2024-03-25T14:25:39;7.75;;;4.30;;
63093;SDS011;49183;51.380;0.098;2024-03-25T14:28:06;11.38;;;4.28;;
63093;SDS011;49183;51.380;0.098;2024-03-25T14:30:33;9.27;;;4.53;;
63093;SDS011;49183;51.380;0.098;2024-03-25T14:32:59;6.07;;;2.95;;
63093;SDS011;49183;51.380;0.098;2024-03-25T14:35:26;5.47;;;3.67;;
63093;SDS011;49183;51.380;0.098;2024-03-25T14:37:52;6.03;;;3.22;;
63093;SDS011;49183;51.380;0.098;2024-03-25T14:40:20;5.78;;;3.28;;
63093;SDS011;49183;51.380;0.098;2024-03-25T14:42:47;5.55;;;3.78;;
63093;SDS011;49183;51.380;0.098;2024-03-25T14:45:14;10.00;;;3.15;;
63093;SDS011;49183;51.380;0.098;2024-03-25T14:47:41;9.43;;;3.58;;
63093;SDS011;49183;51.380;0.098;2024-03-25T14:50:08;7.68;;;3.03;;
63093;SDS011;49183;51.380;0.098;2024-03-25T14:52:35;6.28;;;2.90;;